»·PEaware :: N3452E KTUS-KSNA

N3452E :: KTUS-KSNA

FLIGHT INFORMATION

Flight Status: Arrived
Operator: Privately registered:
United States
More flights under this callsign
Pilot: John C. (27555)
Aircraft: BOMBARDIER BD-100 CHALLENGER 300
(CL30)
More flights by this aircraft type
Origin: KTUS Tucson Intl
United States
Destination: KSNA John Wayne-Orange Co
United States
More flights between these airports :: More routes between these airports
Route: BURRO4 GBN J104 CULTS HRRBR EMLLD DSNEE4
File this flight plan on PilotEdge
Remarks:
Altitude:
(Current/Filed)
36,000ft
Speed:
(Current/Filed)
460kts
Departed: 09-Nov-20 08:41 PM
Arrived: 09-Nov-20 09:56 PM
Distance/Time
Traveled:
361nm/1:15
Distance/Time
To Go:
Arrived

Flight Plot

Page will automatically refresh every two minutes.

Flight plan parsing failed; only flown route is shown


Map Options




Map Legend


Flown Route
Filed Route
Departure Airport
Arrival Airport
Navaid (VOR, NDB)
Fix

Horizontal Profiles

Position Reports

Time Latitude Longitude Heading Altitude Ground
Speed
09-Nov-20 20:26 32.115847 -110.956279 90 2650ft 0kts
09-Nov-20 20:27 32.115847 -110.956279 90 2650ft 0kts
09-Nov-20 20:28 32.115847 -110.956279 90 2650ft 0kts
09-Nov-20 20:29 32.115847 -110.956279 90 2650ft 0kts
09-Nov-20 20:30 32.115847 -110.956279 90 2650ft 0kts
09-Nov-20 20:31 32.115847 -110.956279 90 2650ft 0kts
09-Nov-20 20:32 32.115847 -110.956279 90 2650ft 0kts
09-Nov-20 20:33 32.115847 -110.956279 90 2650ft 0kts
09-Nov-20 20:35 32.115847 -110.956279 90 2650ft 0kts
09-Nov-20 20:36 32.115851 -110.956134 84 2649ft 7kts
09-Nov-20 20:37 32.118258 -110.955190 44 2649ft 12kts
09-Nov-20 20:38 32.121306 -110.951636 44 2650ft 9kts
09-Nov-20 20:39 32.121792 -110.951057 45 2650ft 0kts
09-Nov-20 20:40 32.122024 -110.950779 45 2649ft 16kts
09-Nov-20 20:41 32.120451 -110.944450 135 2650ft 102kts
09-Nov-20 20:42 32.084884 -110.902881 134 4965ft 205kts
09-Nov-20 20:43 32.037795 -110.866396 205 8154ft 223kts
09-Nov-20 20:44 32.031254 -110.936692 280 12387ft 252kts
09-Nov-20 20:45 32.046157 -111.017350 285 16885ft 257kts
09-Nov-20 20:46 32.086177 -111.089925 300 20734ft 266kts
09-Nov-20 20:47 32.128485 -111.162474 300 24142ft 268kts
09-Nov-20 20:48 32.171555 -111.236378 299 26876ft 277kts
09-Nov-20 20:49 32.216105 -111.312969 298 29299ft 285kts
09-Nov-20 20:50 32.262260 -111.392478 298 31408ft 294kts
09-Nov-20 20:51 32.309705 -111.474370 297 33261ft 303kts
09-Nov-20 20:52 32.358391 -111.558604 297 34835ft 313kts
09-Nov-20 20:53 32.408558 -111.645630 297 36152ft 326kts
09-Nov-20 20:53 32.453628 -111.724032 297 36183ft 358kts
09-Nov-20 20:54 32.512603 -111.826712 298 36190ft 389kts
09-Nov-20 20:55 32.575612 -111.936743 298 36188ft 405kts
09-Nov-20 20:56 32.639891 -112.049334 298 36182ft 410kts
09-Nov-20 20:58 32.714651 -112.180688 298 36169ft 404kts
09-Nov-20 20:58 32.767307 -112.273522 298 36156ft 399kts
09-Nov-20 20:59 32.829721 -112.383849 298 36148ft 396kts
09-Nov-20 21:00 32.891681 -112.493730 298 36147ft 395kts
09-Nov-20 21:01 32.953246 -112.603206 298 36143ft 394kts
09-Nov-20 21:02 33.014816 -112.713060 298 36157ft 394kts
09-Nov-20 21:03 33.076467 -112.823376 299 36158ft 397kts
09-Nov-20 21:04 33.138187 -112.934153 301 36163ft 399kts
09-Nov-20 21:05 33.200423 -113.046137 303 36179ft 401kts
09-Nov-20 21:06 33.262857 -113.158724 303 36186ft 401kts
09-Nov-20 21:07 33.324838 -113.270909 303 36189ft 400kts
09-Nov-20 21:08 33.384431 -113.379121 303 36188ft 398kts
09-Nov-20 21:09 33.445727 -113.490786 303 36187ft 396kts
09-Nov-20 21:10 33.506557 -113.601899 303 36178ft 393kts
09-Nov-20 21:11 33.567169 -113.712993 302 36183ft 392kts
09-Nov-20 21:12 33.627312 -113.823508 302 36183ft 392kts
09-Nov-20 21:13 33.678312 -113.939898 296 36179ft 391kts
09-Nov-20 21:14 33.724871 -114.059902 295 36179ft 392kts
09-Nov-20 21:15 33.760985 -114.184471 282 36180ft 395kts
09-Nov-20 21:16 33.777745 -114.316498 281 36175ft 396kts
09-Nov-20 21:17 33.793360 -114.449342 281 36131ft 396kts
09-Nov-20 21:18 33.808874 -114.584082 281 34856ft 406kts
09-Nov-20 21:19 33.823653 -114.714215 281 34373ft 378kts
09-Nov-20 21:20 33.838138 -114.842526 281 32514ft 386kts
09-Nov-20 21:21 33.852522 -114.971213 281 30981ft 383kts
09-Nov-20 21:22 33.867036 -115.101912 281 30528ft 397kts
09-Nov-20 21:23 33.881876 -115.237028 281 30505ft 411kts
09-Nov-20 21:24 33.897143 -115.377455 281 30460ft 417kts
09-Nov-20 21:25 33.912160 -115.517238 281 30700ft 414kts
09-Nov-20 21:26 33.926415 -115.655009 279 30740ft 412kts
09-Nov-20 21:27 33.936061 -115.788714 279 30405ft 384kts
09-Nov-20 21:28 33.944952 -115.914535 279 30258ft 365kts
09-Nov-20 21:29 33.953558 -116.038074 279 29930ft 371kts
09-Nov-20 21:30 33.962373 -116.166819 279 28900ft 390kts
09-Nov-20 21:31 33.952541 -116.299502 267 27443ft 382kts
09-Nov-20 21:32 33.937358 -116.424421 267 25954ft 372kts
09-Nov-20 21:33 33.922115 -116.547309 267 24489ft 366kts
09-Nov-20 21:34 33.906708 -116.667071 266 23454ft 360kts
09-Nov-20 21:35 33.892159 -116.784213 267 20751ft 341kts
09-Nov-20 21:36 33.879725 -116.898006 265 17024ft 334kts
09-Nov-20 21:37 33.868831 -116.996597 265 15486ft 295kts
09-Nov-20 21:38 33.858037 -117.093791 265 13217ft 267kts
09-Nov-20 21:39 33.848582 -117.178579 265 11416ft 249kts
09-Nov-20 21:40 33.839431 -117.260188 265 9388ft 243kts
09-Nov-20 21:41 33.830362 -117.340555 264 8340ft 242kts
09-Nov-20 21:42 33.821383 -117.419507 264 7923ft 237kts
09-Nov-20 21:43 33.802588 -117.496001 252 7485ft 231kts
09-Nov-20 21:44 33.800542 -117.568532 273 7651ft 208kts
09-Nov-20 21:45 33.823490 -117.628088 302 6775ft 191kts
09-Nov-20 21:46 33.850268 -117.681044 301 5104ft 178kts
09-Nov-20 21:47 33.875052 -117.730693 301 3999ft 161kts
09-Nov-20 21:48 33.867128 -117.767192 181 3722ft 138kts
09-Nov-20 21:49 33.829284 -117.771419 209 3098ft 123kts
09-Nov-20 21:50 33.796449 -117.792192 209 2611ft 134kts
09-Nov-20 21:51 33.764121 -117.812718 208 1904ft 125kts
09-Nov-20 21:52 33.733217 -117.832144 207 1255ft 123kts
09-Nov-20 21:53 33.702983 -117.851539 209 647ft 121kts
09-Nov-20 21:54 33.673957 -117.869956 207 63ft 96kts
09-Nov-20 21:55 33.670111 -117.873433 288 63ft 0kts

Navigation Log

Ident Type
Flight plan parsing failed, navigation log unavailable